createdAt,value
2023-01-03T00:02:14.162Z,84.63
2023-01-03T00:04:49.125Z,82.20
2023-01-03T00:07:35.167Z,87.28
2023-01-03T00:10:10.680Z,93.20
2023-01-03T00:12:40.767Z,90.57
2023-01-03T00:15:11.581Z,96.28
2023-01-03T00:20:12.134Z,86.75
2023-01-03T00:22:42.043Z,86.10
2023-01-03T00:25:11.989Z,91.13
2023-01-03T00:27:41.875Z,91.13
2023-01-03T00:30:12.373Z,87.43
2023-01-03T00:32:42.438Z,90.35
2023-01-03T00:35:12.976Z,91.43
2023-01-03T00:37:42.847Z,91.25
2023-01-03T00:40:13.330Z,90.70
2023-01-03T00:42:54.178Z,81.32
2023-01-03T00:45:25.694Z,83.85
2023-01-03T00:47:56.368Z,82.95
2023-01-03T00:50:26.217Z,84.87
2023-01-03T00:52:56.028Z,95.63
2023-01-03T00:55:25.854Z,101.07
2023-01-03T00:57:55.843Z,95.60
2023-01-03T01:00:25.694Z,92.40
2023-01-03T01:02:58.086Z,96.80
2023-01-03T01:05:27.996Z,98.30
2023-01-03T01:07:58.108Z,100.68
2023-01-03T01:10:28.221Z,96.20
2023-01-03T01:12:58.795Z,109.88
2023-01-03T01:15:28.718Z,105.63
2023-01-03T01:17:59.831Z,107.43
2023-01-03T01:20:29.723Z,110.45
2023-01-03T01:22:59.623Z,102.47
2023-01-03T01:25:29.545Z,100.80
2023-01-03T01:27:59.381Z,100.87
2023-01-03T01:30:29.282Z,101.30
2023-01-03T01:32:59.208Z,100.20
2023-01-03T01:35:29.078Z,99.65
2023-01-03T01:37:59.953Z,108.13
2023-01-03T01:43:17.888Z,117.80
2023-01-03T01:45:48.967Z,119.95
2023-01-03T01:48:19.851Z,118.18
2023-01-03T01:53:27.867Z,115.97
2023-01-03T01:56:19.331Z,109.32
2023-01-03T01:58:52.711Z,116.07
2023-01-03T02:01:25.323Z,124.30
2023-01-03T02:04:23.061Z,121.18
2023-01-03T02:06:54.782Z,127.40
2023-01-03T02:09:25.189Z,132.20
2023-01-03T02:12:22.145Z,142.65
2023-01-03T02:15:30.312Z,154.40
2023-01-03T02:18:26.708Z,145.15
2023-01-03T02:21:35.777Z,135.07
2023-01-03T02:24:41.905Z,132.38
2023-01-03T02:27:50.829Z,126.63
2023-01-03T02:30:38.042Z,118.03
2023-01-03T02:33:41.585Z,114.72
2023-01-03T02:36:41.989Z,106.30
2023-01-03T02:39:29.400Z,110.72
2023-01-03T02:42:41.295Z,108.38
2023-01-03T02:45:18.067Z,103.63
2023-01-03T02:47:57.364Z,107.90
2023-01-03T02:50:30.622Z,112.70
2023-01-03T02:53:08.223Z,100.90
2023-01-03T02:55:40.261Z,106.38
2023-01-03T02:58:18.986Z,110.50
2023-01-03T03:00:53.778Z,101.28
2023-01-03T03:03:29.031Z,102.60
2023-01-03T03:06:24.414Z,102.43
2023-01-03T03:08:54.706Z,104.63
2023-01-03T03:11:43.495Z,108.35
2023-01-03T03:14:25.839Z,107.03
2023-01-03T03:17:01.352Z,105.30
2023-01-03T03:19:53.857Z,104.85
2023-01-03T03:23:03.925Z,105.35
2023-01-03T03:25:45.826Z,115.30
2023-01-03T03:28:36.320Z,122.32
2023-01-03T03:31:14.771Z,125.97
2023-01-03T03:34:01.359Z,133.57
2023-01-03T03:37:06.479Z,130.55
2023-01-03T03:39:54.959Z,130.95
2023-01-03T03:42:55.182Z,135.68
2023-01-03T03:45:43.922Z,152.25
2023-01-03T03:48:28.119Z,156.07
2023-01-03T03:51:11.503Z,144.60
2023-01-03T03:53:44.365Z,134.07
2023-01-03T03:56:21.423Z,141.73
2023-01-03T03:58:56.473Z,155.63
2023-01-03T04:01:29.529Z,155.13
2023-01-03T04:04:06.040Z,142.68
2023-01-03T04:06:43.923Z,125.70
2023-01-03T04:09:15.760Z,136.15
2023-01-03T04:11:48.005Z,132.35
2023-01-03T04:14:18.067Z,125.80
2023-01-03T04:16:48.226Z,129.20
2023-01-03T04:19:18.900Z,139.65
2023-01-03T04:21:49.659Z,137.30
2023-01-03T04:26:52.900Z,130.07
2023-01-03T04:29:22.857Z,131.75
2023-01-03T04:31:53.052Z,135.30
2023-01-03T04:34:24.663Z,125.65
2023-01-03T04:36:56.165Z,124.38
2023-01-03T04:39:26.166Z,126.85
2023-01-03T04:41:58.296Z,127.88
2023-01-03T04:44:28.311Z,122.28
2023-01-03T04:46:58.323Z,121.63
2023-01-03T04:49:28.095Z,121.03
2023-01-03T04:51:58.589Z,129.55
2023-01-03T04:54:28.892Z,123.43
2023-01-03T04:56:58.857Z,131.25
2023-01-03T04:59:28.817Z,128.95
2023-01-03T05:02:00.444Z,129.25
2023-01-03T05:04:31.820Z,137.52
2023-01-03T05:07:02.301Z,142.00
2023-01-03T05:09:32.943Z,134.35
2023-01-03T05:14:33.685Z,133.43
2023-01-03T05:17:07.888Z,128.40
2023-01-03T05:19:57.681Z,119.45
2023-01-03T05:22:41.713Z,117.45
2023-01-03T05:25:32.201Z,115.13
2023-01-03T05:28:04.137Z,110.32
2023-01-03T05:30:34.551Z,118.22
2023-01-03T05:33:07.552Z,110.80
2023-01-03T05:35:47.394Z,110.95
2023-01-03T05:38:18.479Z,112.90
2023-01-03T05:40:48.854Z,113.80
2023-01-03T05:43:19.449Z,96.45
2023-01-03T05:48:24.677Z,101.68
2023-01-03T05:50:55.145Z,95.55
2023-01-03T05:53:26.059Z,90.85
2023-01-03T05:55:58.159Z,93.00
2023-01-03T05:58:29.167Z,85.20
2023-01-03T06:01:01.129Z,87.32
2023-01-03T06:03:31.675Z,95.30
2023-01-03T06:08:39.472Z,85.40
2023-01-03T06:11:10.750Z,80.85
2023-01-03T06:13:42.114Z,79.55
2023-01-03T06:16:35.508Z,78.47
2023-01-03T06:19:07.170Z,75.32
2023-01-03T06:21:38.950Z,78.88
2023-01-03T06:24:12.299Z,84.18
2023-01-03T06:26:42.619Z,74.55
2023-01-03T06:29:12.626Z,74.20
2023-01-03T06:31:43.433Z,74.18
2023-01-03T06:34:13.919Z,69.82
2023-01-03T06:39:13.320Z,66.97
2023-01-03T06:41:43.341Z,68.93
2023-01-03T06:44:15.227Z,81.15
2023-01-03T06:46:57.230Z,88.00
2023-01-03T06:49:49.777Z,87.80
2023-01-03T06:52:38.008Z,76.65
2023-01-03T06:55:12.680Z,80.00
2023-01-03T06:57:43.408Z,70.32
2023-01-03T07:00:14.118Z,72.13
2023-01-03T07:02:47.778Z,66.65
2023-01-03T07:05:18.505Z,62.17
2023-01-03T07:10:18.923Z,60.10
2023-01-03T07:12:59.371Z,58.38
2023-01-03T07:15:29.467Z,54.72
2023-01-03T07:18:00.184Z,54.22
2023-01-03T07:20:30.673Z,54.22
2023-01-03T07:25:33.463Z,52.42
2023-01-03T07:28:09.184Z,61.65
2023-01-03T07:30:50.504Z,59.08
2023-01-03T07:33:22.830Z,57.35
2023-01-03T07:35:55.852Z,56.47
2023-01-03T07:38:27.346Z,56.33
2023-01-03T07:41:03.034Z,58.47
2023-01-03T07:43:40.686Z,60.00
2023-01-03T07:46:25.397Z,54.97
2023-01-03T07:49:07.979Z,58.20
2023-01-03T07:51:41.940Z,52.38
2023-01-03T07:54:16.838Z,51.67
2023-01-03T07:56:46.821Z,48.25
2023-01-03T07:59:17.727Z,45.92
2023-01-03T08:01:48.001Z,47.22
2023-01-03T08:06:50.608Z,44.40
2023-01-03T08:09:32.531Z,51.50
2023-01-03T08:12:13.022Z,50.65
2023-01-03T08:14:43.900Z,55.17
2023-01-03T08:17:15.327Z,48.00
2023-01-03T08:19:46.267Z,49.05
2023-01-03T08:22:16.494Z,49.13
2023-01-03T08:24:46.964Z,47.30
2023-01-03T08:29:49.980Z,45.53
2023-01-03T08:32:31.131Z,47.85
2023-01-03T08:35:06.273Z,47.92
2023-01-03T08:37:37.301Z,46.22
2023-01-03T08:40:13.018Z,46.03
2023-01-03T08:42:46.551Z,38.58
2023-01-03T08:45:25.811Z,38.40
2023-01-03T08:47:59.860Z,35.28
2023-01-03T08:50:33.189Z,36.65
2023-01-03T08:53:04.250Z,36.40
2023-01-03T08:55:42.064Z,39.30
2023-01-03T08:58:14.172Z,36.95
2023-01-03T09:00:46.765Z,35.25
2023-01-03T09:03:17.489Z,36.15
2023-01-03T09:05:50.113Z,34.33
2023-01-03T09:08:21.602Z,34.35
2023-01-03T09:10:59.569Z,37.80
2023-01-03T09:13:33.625Z,63.72
2023-01-03T09:16:08.326Z,65.70
2023-01-03T09:18:40.240Z,72.03
2023-01-03T09:21:11.201Z,72.00
2023-01-03T09:23:45.748Z,75.22
2023-01-03T09:26:18.104Z,75.43
2023-01-03T09:28:49.914Z,72.00
2023-01-03T09:31:21.488Z,82.20
2023-01-03T09:33:53.688Z,86.93
2023-01-03T09:36:24.261Z,81.20
2023-01-03T09:38:59.551Z,73.40
2023-01-03T09:41:31.070Z,65.90
2023-01-03T09:44:06.797Z,63.90
2023-01-03T09:46:38.271Z,62.30
2023-01-03T09:49:09.584Z,69.30
2023-01-03T09:51:59.591Z,67.28
2023-01-03T09:54:49.724Z,66.45
2023-01-03T09:57:40.868Z,62.03
2023-01-03T10:00:39.881Z,62.03
2023-01-03T10:03:51.458Z,62.42
2023-01-03T10:06:53.640Z,61.67
2023-01-03T10:09:54.383Z,62.72
2023-01-03T10:15:43.172Z,60.33
2023-01-03T10:18:53.034Z,57.47
2023-01-03T10:21:49.077Z,59.05
2023-01-03T10:24:33.031Z,59.88
2023-01-03T10:27:24.177Z,61.75
2023-01-03T10:30:04.990Z,60.45
2023-01-03T10:33:06.325Z,62.00
2023-01-03T10:35:42.505Z,62.17
2023-01-03T10:38:13.759Z,57.83
2023-01-03T10:40:52.360Z,59.22
2023-01-03T10:43:34.738Z,62.20
2023-01-03T10:46:07.921Z,62.95
2023-01-03T10:51:56.569Z,67.85
2023-01-03T10:54:57.945Z,71.40
2023-01-03T10:57:47.901Z,64.55
2023-01-03T11:00:39.130Z,63.50
2023-01-03T11:03:20.525Z,65.75
2023-01-03T11:06:10.218Z,62.28
2023-01-03T11:08:48.455Z,61.67
2023-01-03T11:11:39.202Z,63.25
2023-01-03T11:14:28.878Z,61.20
2023-01-03T11:17:11.833Z,62.37
2023-01-03T11:19:43.006Z,62.83
2023-01-03T11:22:45.791Z,61.40
2023-01-03T11:25:41.580Z,62.75
2023-01-03T11:28:41.013Z,62.55
2023-01-03T11:31:48.696Z,64.40
2023-01-03T11:35:20.271Z,61.63
2023-01-03T11:37:47.836Z,66.28
2023-01-03T11:40:49.376Z,66.22
2023-01-03T11:43:42.051Z,67.20
2023-01-03T11:46:38.024Z,70.05
2023-01-03T11:49:27.289Z,79.65
2023-01-03T11:52:27.525Z,83.50
2023-01-03T11:55:24.575Z,82.75
2023-01-03T11:58:21.067Z,85.68
2023-01-03T12:01:07.931Z,85.38
2023-01-03T12:04:13.384Z,84.70
2023-01-03T12:10:30.958Z,98.75
2023-01-03T12:13:29.048Z,91.45
2023-01-03T12:16:25.397Z,86.50
2023-01-03T12:19:22.039Z,86.97
2023-01-03T12:22:01.645Z,100.72
2023-01-03T12:24:45.359Z,106.53
2023-01-03T12:27:31.367Z,104.10
2023-01-03T12:30:27.833Z,106.93
2023-01-03T12:33:09.487Z,98.18
2023-01-03T12:35:52.161Z,116.32
2023-01-03T12:38:31.740Z,113.18
2023-01-03T12:41:30.465Z,94.50
2023-01-03T12:44:15.959Z,85.35
2023-01-03T12:46:52.265Z,96.30
2023-01-03T12:49:41.265Z,89.22
2023-01-03T12:52:17.948Z,107.50
2023-01-03T12:54:58.298Z,105.90
2023-01-03T12:58:00.874Z,111.47
2023-01-03T13:01:01.421Z,103.32
2023-01-03T13:03:43.996Z,93.55
2023-01-03T13:06:25.947Z,96.88
2023-01-03T13:09:06.774Z,99.05
2023-01-03T13:11:44.614Z,94.15
2023-01-03T13:14:23.362Z,93.15
2023-01-03T13:16:58.141Z,86.80
2023-01-03T13:19:47.111Z,92.32
2023-01-03T13:22:54.346Z,88.40
2023-01-03T13:25:37.763Z,97.00
2023-01-03T13:28:28.766Z,91.35
2023-01-03T13:31:34.057Z,91.30
2023-01-03T13:34:19.345Z,89.00
2023-01-03T13:37:14.083Z,96.32
2023-01-03T13:39:57.844Z,107.93
2023-01-03T13:42:43.993Z,107.95
2023-01-03T13:45:51.384Z,106.30
2023-01-03T13:48:36.670Z,107.40
2023-01-03T13:51:29.808Z,96.72
2023-01-03T13:54:07.221Z,90.45
2023-01-03T13:57:01.564Z,98.82
2023-01-03T13:59:44.694Z,109.53
2023-01-03T14:02:46.812Z,137.18
2023-01-03T14:05:35.775Z,138.45
2023-01-03T14:08:37.788Z,136.88
2023-01-03T14:11:36.674Z,127.93
2023-01-03T14:14:15.326Z,129.50
2023-01-03T14:16:55.704Z,136.25
2023-01-03T14:19:51.513Z,143.27
2023-01-03T14:22:31.983Z,134.77
2023-01-03T14:25:03.463Z,133.43
2023-01-03T14:27:43.105Z,131.80
2023-01-03T14:30:34.199Z,110.10
2023-01-03T14:33:11.643Z,96.47
2023-01-03T14:35:46.985Z,90.13
2023-01-03T14:38:40.743Z,90.28
2023-01-03T14:41:30.633Z,87.90
2023-01-03T14:44:17.220Z,91.47
2023-01-03T14:47:04.279Z,93.03
2023-01-03T14:49:55.380Z,105.78
2023-01-03T14:52:51.399Z,98.07
2023-01-03T14:55:35.127Z,92.30
2023-01-03T14:58:19.985Z,91.40
2023-01-03T15:00:52.641Z,83.45
2023-01-03T15:03:23.012Z,84.20
2023-01-03T15:06:01.772Z,79.88
2023-01-03T15:08:35.328Z,81.20
2023-01-03T15:11:13.875Z,80.57
2023-01-03T15:13:58.061Z,78.25
2023-01-03T15:16:40.883Z,78.65
2023-01-03T15:19:32.821Z,77.78
2023-01-03T15:22:17.313Z,74.28
2023-01-03T15:24:51.621Z,79.60
2023-01-03T15:27:47.496Z,80.28
2023-01-03T15:30:27.259Z,76.78
2023-01-03T15:33:18.478Z,81.23
2023-01-03T15:35:53.218Z,78.00
2023-01-03T15:38:46.253Z,84.53
2023-01-03T15:42:12.384Z,94.13
2023-01-03T15:44:41.895Z,84.35
2023-01-03T15:47:16.084Z,85.75
2023-01-03T15:49:51.436Z,85.38
2023-01-03T15:52:22.902Z,86.53
2023-01-03T15:54:57.166Z,87.03
2023-01-03T15:57:32.689Z,85.25
2023-01-03T16:00:07.087Z,86.78
2023-01-03T16:02:41.289Z,86.25
2023-01-03T16:05:21.933Z,82.85
2023-01-03T16:07:58.549Z,84.95
2023-01-03T16:10:32.858Z,80.68
2023-01-03T16:13:09.884Z,83.97
2023-01-03T16:15:45.804Z,85.05
2023-01-03T16:18:22.575Z,87.22
2023-01-03T16:21:35.812Z,76.53
2023-01-03T16:24:30.306Z,76.85
2023-01-03T16:27:03.283Z,70.75
2023-01-03T16:29:34.378Z,70.32
2023-01-03T16:32:05.018Z,74.30
2023-01-03T16:34:35.629Z,66.82
2023-01-03T16:37:06.090Z,69.68
2023-01-03T16:39:37.412Z,71.20
2023-01-03T16:42:17.031Z,72.22
2023-01-03T16:44:49.911Z,71.32
2023-01-03T16:47:27.012Z,74.35
2023-01-03T16:50:19.716Z,74.60
2023-01-03T16:52:56.715Z,72.18
2023-01-03T16:55:45.934Z,64.93
2023-01-03T16:58:17.500Z,62.78
2023-01-03T17:00:47.548Z,59.92
2023-01-03T17:03:17.780Z,61.45
2023-01-03T17:05:49.668Z,61.83
2023-01-03T17:08:42.367Z,58.13
2023-01-03T17:11:14.812Z,65.22
2023-01-03T17:13:47.369Z,63.55
2023-01-03T17:16:21.846Z,65.72
2023-01-03T17:18:55.650Z,61.42
2023-01-03T17:21:30.876Z,62.35
2023-01-03T17:24:04.920Z,67.30
2023-01-03T17:26:37.047Z,65.32
2023-01-03T17:29:09.887Z,67.10
2023-01-03T17:31:40.837Z,69.65
2023-01-03T17:34:29.077Z,66.97
2023-01-03T17:37:04.345Z,63.60
2023-01-03T17:39:35.111Z,68.28
2023-01-03T17:42:15.342Z,67.47
2023-01-03T17:45:07.893Z,67.65
2023-01-03T17:47:59.311Z,71.35
2023-01-03T17:50:31.886Z,70.13
2023-01-03T17:53:05.038Z,66.53
2023-01-03T17:55:35.383Z,66.68
2023-01-03T17:58:06.813Z,67.38
2023-01-03T18:00:37.014Z,67.45
2023-01-03T18:03:07.888Z,69.43
2023-01-03T18:05:42.837Z,69.88
2023-01-03T18:08:22.064Z,73.18
2023-01-03T18:10:55.036Z,69.35
2023-01-03T18:13:29.807Z,74.55
2023-01-03T18:15:59.984Z,73.03
2023-01-03T18:18:31.568Z,75.72
2023-01-03T18:21:01.651Z,71.10
2023-01-03T18:23:38.786Z,75.30
2023-01-03T18:26:14.348Z,67.32
2023-01-03T18:28:44.914Z,70.22
2023-01-03T18:31:20.769Z,71.80
2023-01-03T18:33:54.588Z,67.28
2023-01-03T18:36:28.541Z,72.43
2023-01-03T18:39:08.470Z,72.97
2023-01-03T18:41:38.718Z,82.30
2023-01-03T18:44:08.928Z,90.80
2023-01-03T18:46:39.158Z,91.00
2023-01-03T18:49:10.202Z,87.35
2023-01-03T18:51:40.930Z,87.80
2023-01-03T18:54:16.498Z,79.70
2023-01-03T18:56:47.239Z,83.15
2023-01-03T18:59:27.260Z,79.68
2023-01-03T19:01:58.189Z,79.43
2023-01-03T19:04:28.350Z,81.40
2023-01-03T19:06:58.415Z,76.15
2023-01-03T19:09:31.272Z,77.63
2023-01-03T19:12:02.088Z,69.38
2023-01-03T19:14:33.863Z,71.80
2023-01-03T19:17:06.073Z,72.45
2023-01-03T19:19:35.882Z,68.38
2023-01-03T19:22:19.145Z,65.03
2023-01-03T19:24:51.590Z,63.53
2023-01-03T19:27:25.618Z,62.05
2023-01-03T19:29:56.147Z,60.35
2023-01-03T19:32:30.342Z,66.57
2023-01-03T19:35:00.547Z,68.63
2023-01-03T19:37:30.422Z,65.78
2023-01-03T19:40:01.267Z,69.63
2023-01-03T19:45:22.599Z,68.97
2023-01-03T19:47:54.107Z,65.85
2023-01-03T19:50:27.848Z,71.28
2023-01-03T19:52:58.752Z,65.18
2023-01-03T19:55:32.250Z,66.18
2023-01-03T19:58:07.974Z,66.38
2023-01-03T20:00:38.860Z,71.25
2023-01-03T20:03:15.500Z,65.35
2023-01-03T20:05:45.511Z,67.35
2023-01-03T20:08:18.349Z,64.10
2023-01-03T20:10:48.695Z,62.72
2023-01-03T20:13:25.090Z,67.43
2023-01-03T20:15:58.939Z,68.72
2023-01-03T20:18:34.939Z,66.97
2023-01-03T20:21:25.205Z,66.15
2023-01-03T20:23:58.447Z,67.80
2023-01-03T20:26:32.490Z,69.13
2023-01-03T20:29:02.583Z,65.43
2023-01-03T20:31:32.453Z,65.68
2023-01-03T20:34:08.056Z,69.47
2023-01-03T20:36:51.315Z,66.25
2023-01-03T20:39:30.162Z,61.38
2023-01-03T20:42:03.694Z,62.95
2023-01-03T20:44:34.762Z,64.68
2023-01-03T20:47:06.088Z,64.53
2023-01-03T20:49:36.523Z,63.60
2023-01-03T20:52:06.430Z,60.42
2023-01-03T20:54:36.347Z,64.22
2023-01-03T20:57:17.215Z,60.83
2023-01-03T21:02:16.544Z,60.38
2023-01-03T21:04:46.659Z,59.08
2023-01-03T21:07:51.512Z,60.45
2023-01-03T21:10:26.915Z,61.22
2023-01-03T21:12:57.011Z,62.63
2023-01-03T21:15:26.952Z,60.92
2023-01-03T21:17:57.499Z,62.10
2023-01-03T21:20:29.737Z,68.68
2023-01-03T21:23:00.023Z,68.40
2023-01-03T21:25:34.450Z,69.07
2023-01-03T21:28:05.579Z,64.35
2023-01-03T21:30:35.796Z,64.65
2023-01-03T21:33:06.160Z,69.60
2023-01-03T21:35:36.053Z,65.20
2023-01-03T21:38:06.045Z,69.20
2023-01-03T21:40:36.289Z,66.93
2023-01-03T21:43:06.252Z,63.15
2023-01-03T21:45:48.871Z,66.07
2023-01-03T21:48:20.423Z,64.13
2023-01-03T21:50:51.671Z,64.65
2023-01-03T21:53:25.043Z,65.05
2023-01-03T21:55:55.048Z,60.92
2023-01-03T21:58:25.928Z,62.90
2023-01-03T22:00:55.958Z,63.92
2023-01-03T22:03:44.946Z,62.35
2023-01-03T22:06:16.295Z,64.80
2023-01-03T22:08:46.151Z,60.88
2023-01-03T22:11:16.251Z,60.93
2023-01-03T22:13:46.271Z,46.72
2023-01-03T22:16:16.276Z,62.60
2023-01-03T22:18:46.321Z,62.90
2023-01-03T22:21:16.741Z,64.30
2023-01-03T22:23:46.676Z,61.10
2023-01-03T22:26:18.321Z,63.28
2023-01-03T22:28:49.469Z,63.13
2023-01-03T22:31:26.140Z,62.10
2023-01-03T22:33:56.240Z,65.38
2023-01-03T22:36:26.203Z,64.90
2023-01-03T22:38:56.191Z,65.22
2023-01-03T22:41:26.081Z,67.93
2023-01-03T22:43:56.048Z,64.17
2023-01-03T22:46:26.652Z,65.13
2023-01-03T22:48:58.097Z,63.08
2023-01-03T22:51:28.134Z,63.10
2023-01-03T22:53:58.678Z,49.28
2023-01-03T22:56:28.598Z,61.85
2023-01-03T22:58:58.515Z,62.33
2023-01-03T23:01:29.674Z,64.57
2023-01-03T23:04:02.284Z,66.40
2023-01-03T23:06:33.448Z,60.58
2023-01-03T23:09:03.718Z,64.18
2023-01-03T23:11:48.943Z,58.03
2023-01-03T23:14:21.288Z,67.65
2023-01-03T23:16:56.130Z,62.88
2023-01-03T23:19:29.215Z,62.05
2023-01-03T23:21:59.923Z,57.53
2023-01-03T23:24:29.957Z,65.15
2023-01-03T23:26:59.990Z,70.40
2023-01-03T23:29:32.962Z,70.03
2023-01-03T23:32:03.490Z,70.28
2023-01-03T23:34:33.660Z,68.32
2023-01-03T23:37:06.316Z,70.82
2023-01-03T23:39:36.934Z,72.97
2023-01-03T23:42:07.055Z,71.60
2023-01-03T23:44:36.969Z,75.22
2023-01-03T23:47:12.792Z,70.88
2023-01-03T23:49:43.576Z,72.80
2023-01-03T23:52:13.494Z,69.35
2023-01-03T23:54:43.489Z,69.65
2023-01-03T23:57:13.635Z,67.53
2023-01-03T23:59:44.300Z,70.85
